| time (UTC) | temp F | wind direction | speed MPH | gust MPH | rain 1hr in | rain 24hr in | rain mn in | humidity % | barometer mb |
| 20260510230515 | 59 | 0.0 | 1.0 | 0.00 | 0.03 | 0.02 | 91 | 1011.3 | |
| 20260510225516 | 59 | 0.0 | 0.0 | 0.00 | 0.03 | 0.02 | 91 | 1011.2 | |
| 20260510224515 | 59 | 0.0 | 0.0 | 0.00 | 0.03 | 0.02 | 92 | 1011.2 | |
| 20260510223516 | 59 | 0.0 | 1.0 | 0.00 | 0.03 | 0.02 | 91 | 1011.1 | |
| 20260510222515 | 58 | 0.0 | 1.0 | 0.00 | 0.03 | 0.02 | 91 | 1011.0 | |
| 20260510221515 | 58 | 0.0 | 0.0 | 0.00 | 0.03 | 0.02 | 90 | 1010.9 | |
| 20260510220515 | 58 | 0.0 | 1.0 | 0.00 | 0.03 | 0.02 | 89 | 1010.8 | |
| 20260510215516 | 58 | 0.0 | 0.0 | 0.01 | 0.03 | 0.02 | 90 | 1010.6 | |
| 20260510214536 | 59 | 0.0 | 1.0 | 0.02 | 0.03 | 0.02 | 91 | 1010.7 | |
| 20260510213535 | 59 | 0.0 | 0.0 | 0.02 | 0.04 | 0.02 | 88 | 1010.5 | |
| 20260510212515 | 59 | 0.0 | 3.0 | 0.02 | 0.05 | 0.02 | 85 | 1010.6 | |
| 20260510211515 | 60 | 0.0 | 3.0 | 0.02 | 0.05 | 0.02 | 84 | 1010.7 | |
| 20260510210515 | 62 | 0.0 | 4.0 | 0.02 | 0.06 | 0.02 | 84 | 1010.7 | |
| 20260510205515 | 65 | 68 | 1.0 | 4.0 | 0.01 | 0.06 | 0.01 | 79 | 1010.5 |
| 20260510204515 | 66 | 0.0 | 3.0 | 0.00 | 0.06 | 0.00 | 71 | 1010.0 | |
| 20260510203515 | 67 | 0.0 | 3.0 | 0.00 | 0.07 | 0.00 | 69 | 1009.9 | |
| 20260510202555 | 67 | 68 | 1.0 | 5.0 | 0.00 | 0.08 | 0.00 | 70 | 1009.9 |
| 20260510201516 | 67 | 0.0 | 2.0 | 0.00 | 0.09 | 0.00 | 71 | 1009.9 | |
| 20260510200515 | 67 | 0.0 | 2.0 | 0.00 | 0.10 | 0.00 | 70 | 1010.0 | |
| 20260510195515 | 67 | 0.0 | 1.0 | 0.00 | 0.12 | 0.00 | 69 | 1010.1 | |
| 20260510194515 | 67 | 68 | 1.0 | 2.0 | 0.00 | 0.13 | 0.00 | 71 | 1010.4 |
| 20260510193515 | 67 | 68 | 1.0 | 5.0 | 0.00 | 0.13 | 0.00 | 72 | 1010.4 |
| 20260510192515 | 67 | 0.0 | 3.0 | 0.00 | 0.14 | 0.00 | 72 | 1010.5 | |
| 20260510191515 | 67 | 0.0 | 4.0 | 0.00 | 0.14 | 0.00 | 69 | 1010.6 | |
| 20260510190514 | 68 | 0.0 | 5.0 | 0.00 | 0.14 | 0.00 | 69 | 1010.4 | |
| 20260510185535 | 69 | 0.0 | 4.0 | 0.00 | 0.15 | 0.00 | 68 | 1010.6 | |
| 20260510184517 | 70 | 68 | 1.0 | 4.0 | 0.00 | 0.15 | 0.00 | 65 | 1010.5 |
| 20260510183517 | 69 | 0.0 | 3.0 | 0.00 | 0.15 | 0.00 | 67 | 1010.6 | |
| 20260510182517 | 70 | 315 | 1.0 | 4.0 | 0.00 | 0.15 | 0.00 | 65 | 1010.7 |
| 20260510181517 | 69 | 68 | 1.0 | 3.0 | 0.00 | 0.15 | 0.00 | 67 | 1010.6 |
| 20260510180517 | 67 | 0.0 | 2.0 | 0.00 | 0.16 | 0.00 | 70 | 1010.4 | |
| 20260510175517 | 69 | 0.0 | 1.0 | 0.00 | 0.16 | 0.00 | 67 | 1010.7 | |
| 20260510174518 | 69 | 68 | 1.0 | 2.0 | 0.00 | 0.16 | 0.00 | 66 | 1010.7 |
| 20260510173517 | 69 | 0.0 | 2.0 | 0.00 | 0.17 | 0.00 | 67 | 1010.8 | |
| 20260510172517 | 70 | 315 | 1.0 | 3.0 | 0.00 | 0.17 | 0.00 | 64 | 1010.9 |
| 20260510171517 | 69 | 315 | 1.0 | 4.0 | 0.00 | 0.18 | 0.00 | 67 | 1011.0 |
| 20260510170518 | 69 | 68 | 1.0 | 5.0 | 0.00 | 0.19 | 0.00 | 67 | 1011.0 |
| 20260510165536 | 68 | 68 | 1.0 | 4.0 | 0.00 | 0.19 | 0.00 | 68 | 1011.2 |
| 20260510164537 | 67 | 315 | 1.0 | 2.0 | 0.00 | 0.20 | 0.00 | 71 | 1011.2 |
| 20260510163518 | 66 | 68 | 1.0 | 6.0 | 0.00 | 0.20 | 0.00 | 74 | 1011.5 |
| 20260510162518 | 65 | 315 | 1.0 | 8.0 | 0.00 | 0.21 | 0.00 | 74 | 1011.3 |
| 20260510161517 | 64 | 315 | 1.0 | 3.0 | 0.00 | 0.21 | 0.00 | 77 | 1011.4 |
| 20260510160517 | 64 | 315 | 1.0 | 2.0 | 0.00 | 0.22 | 0.00 | 76 | 1011.4 |
| 20260510155517 | 64 | 315 | 1.0 | 2.0 | 0.00 | 0.22 | 0.00 | 79 | 1011.5 |
| 20260510154517 | 63 | 0.0 | 2.0 | 0.00 | 0.23 | 0.00 | 83 | 1011.5 | |
| 20260510153517 | 61 | 0.0 | 3.0 | 0.00 | 0.23 | 0.00 | 83 | 1011.6 | |
| 20260510152517 | 61 | 315 | 1.0 | 3.0 | 0.00 | 0.24 | 0.00 | 83 | 1011.7 |
| 20260510151537 | 60 | 315 | 1.0 | 2.0 | 0.00 | 0.24 | 0.00 | 85 | 1011.6 |
| 20260510150516 | 59 | 315 | 1.0 | 3.0 | 0.00 | 0.24 | 0.00 | 86 | 1011.5 |
| 20260510145517 | 58 | 0.0 | 5.0 | 0.00 | 0.25 | 0.00 | 88 | 1011.5 | |
| 20260510144538 | 57 | 315 | 1.0 | 2.0 | 0.00 | 0.25 | 0.00 | 90 | 1011.4 |
| 20260510143537 | 57 | 0.0 | 2.0 | 0.00 | 0.26 | 0.00 | 89 | 1011.4 | |
| 20260510142518 | 55 | 0.0 | 1.0 | 0.00 | 0.26 | 0.00 | 93 | 1011.1 | |
| 20260510141516 | 54 | 315 | 1.0 | 2.0 | 0.00 | 0.26 | 0.00 | 94 | 1011.2 |
| 20260510140518 | 54 | 0.0 | 1.0 | 0.00 | 0.27 | 0.00 | 95 | 1011.1 | |
| 20260510135521 | 53 | 0.0 | 2.0 | 0.00 | 0.27 | 0.00 | 95 | 1011.2 | |
| 20260510134516 | 52 | 0.0 | 2.0 | 0.00 | 0.28 | 0.00 | 96 | 1011.3 | |
| 20260510133516 | 52 | 0.0 | 1.0 | 0.00 | 0.28 | 0.00 | 96 | 1011.2 | |
| 20260510132537 | 52 | 0.0 | 1.0 | 0.00 | 0.28 | 0.00 | 96 | 1011.1 | |
| 20260510131516 | 51 | 0.0 | 0.0 | 0.00 | 0.29 | 0.00 | 96 | 1011.1 | |
| 20260510130518 | 51 | 0.0 | 1.0 | 0.00 | 0.29 | 0.00 | 96 | 1011.1 | |
| 20260510125538 | 51 | 0.0 | 1.0 | 0.00 | 0.29 | 0.00 | 96 | 1011.0 | |
| 20260510124516 | 51 | 0.0 | 1.0 | 0.00 | 0.30 | 0.00 | 97 | 1011.0 | |
| 20260510123537 | 51 | 0.0 | 0.0 | 0.00 | 0.31 | 0.00 | 97 | 1010.8 | |
| 20260510122516 | 50 | 0.0 | 1.0 | 0.00 | 0.31 | 0.00 | 97 | 1010.9 | |
| 20260510121516 | 50 | 0.0 | 2.0 | 0.00 | 0.31 | 0.00 | 97 | 1010.9 | |
| 20260510120517 | 50 | 0.0 | 2.0 | 0.00 | 0.31 | 0.00 | 97 | 1011.0 | |
| 20260510115536 | 50 | 0.0 | 1.0 | 0.00 | 0.31 | 0.00 | 97 | 1011.0 | |
| 20260510114516 | 50 | 0.0 | 5.0 | 0.00 | 0.31 | 0.00 | 97 | 1011.0 | |
| 20260510113516 | 50 | 0.0 | 1.0 | 0.00 | 0.31 | 0.00 | 97 | 1010.9 | |
| 20260510112516 | 50 | 0.0 | 2.0 | 0.00 | 0.31 | 0.00 | 97 | 1010.9 | |
| 20260510111538 | 50 | 0.0 | 0.0 | 0.00 | 0.32 | 0.00 | 97 | 1010.7 | |
| 20260510110559 | 49 | 0.0 | 1.0 | 0.00 | 0.32 | 0.00 | 97 | 1010.7 | |
| 20260510105516 | 49 | 0.0 | 0.0 | 0.00 | 0.33 | 0.00 | 97 | 1010.8 | |
| 20260510104517 | 49 | 0.0 | 2.0 | 0.00 | 0.34 | 0.00 | 97 | 1010.6 | |
| 20260510103516 | 49 | 0.0 | 0.0 | 0.00 | 0.35 | 0.00 | 97 | 1010.3 | |
| 20260510102517 | 49 | 0.0 | 1.0 | 0.00 | 0.36 | 0.00 | 97 | 1010.2 | |
| 20260510101516 | 49 | 0.0 | 0.0 | 0.00 | 0.37 | 0.00 | 97 | 1010.2 | |
| 20260510100516 | 49 | 0.0 | 0.0 | 0.00 | 0.38 | 0.00 | 97 | 1009.8 | |
| 20260510095516 | 49 | 0.0 | 0.0 | 0.00 | 0.39 | 0.00 | 97 | 1009.6 | |
| 20260510094557 | 49 | 0.0 | 0.0 | 0.00 | 0.39 | 0.00 | 97 | 1009.6 | |
| 20260510093536 | 49 | 0.0 | 0.0 | 0.00 | 0.40 | 0.00 | 97 | 1009.6 | |
| 20260510092516 | 49 | 0.0 | 1.0 | 0.00 | 0.40 | 0.00 | 97 | 1009.6 | |
| 20260510091516 | 49 | 0.0 | 0.0 | 0.00 | 0.40 | 0.00 | 97 | 1009.5 | |
| 20260510090516 | 49 | 0.0 | 2.0 | 0.00 | 0.40 | 0.00 | 97 | 1009.5 | |
| 20260510085516 | 49 | 0.0 | 1.0 | 0.00 | 0.40 | 0.00 | 97 | 1009.8 | |
| 20260510084516 | 49 | 0.0 | 1.0 | 0.00 | 0.40 | 0.00 | 97 | 1009.9 | |
| 20260510083516 | 49 | 0.0 | 1.0 | 0.00 | 0.40 | 0.00 | 97 | 1009.9 | |
| 20260510082516 | 49 | 0.0 | 1.0 | 0.00 | 0.40 | 0.00 | 97 | 1009.9 | |
| 20260510081517 | 49 | 0.0 | 2.0 | 0.00 | 0.40 | 0.00 | 97 | 1009.9 | |
| 20260510080516 | 49 | 0.0 | 4.0 | 0.00 | 0.40 | 0.00 | 97 | 1009.9 | |
| 20260510075516 | 49 | 0.0 | 1.0 | 0.00 | 0.40 | 0.00 | 97 | 1009.8 | |
| 20260510074516 | 49 | 0.0 | 1.0 | 0.00 | 0.40 | 0.00 | 97 | 1009.9 | |
| 20260510073516 | 49 | 0.0 | 0.0 | 0.00 | 0.40 | 0.00 | 97 | 1009.5 | |
| 20260510072516 | 49 | 0.0 | 0.0 | 0.00 | 0.40 | 0.00 | 97 | 1009.6 | |
| 20260510071517 | 49 | 0.0 | 4.0 | 0.00 | 0.40 | 0.00 | 97 | 1009.6 | |
| 20260510070516 | 49 | 0.0 | 0.0 | 0.00 | 0.40 | 0.00 | 97 | 1009.6 | |
| 20260510065516 | 49 | 0.0 | 3.0 | 0.00 | 0.40 | 0.00 | 97 | 1009.5 | |
| 20260510064516 | 49 | 0.0 | 0.0 | 0.00 | 0.40 | 0.00 | 97 | 1009.7 | |
| 20260510063617 | 49 | 0.0 | 0.0 | 0.00 | 0.40 | 0.00 | 97 | 1009.6 | |
| 20260510062516 | 49 | 0.0 | 2.0 | 0.00 | 0.40 | 0.00 | 97 | 1009.6 | |
| 20260510061516 | 49 | 0.0 | 0.0 | 0.00 | 0.40 | 0.00 | 97 | 1009.6 | |
| 20260510060515 | 49 | 0.0 | 0.0 | 0.00 | 0.40 | 0.00 | 97 | 1009.4 | |
| 20260510055516 | 49 | 0.0 | 0.0 | 0.00 | 0.40 | 0.00 | 97 | 1009.3 | |
| 20260510054515 | 50 | 0.0 | 1.0 | 0.00 | 0.40 | 0.00 | 97 | 1009.6 | |
| 20260510053516 | 50 | 0.0 | 0.0 | 0.00 | 0.40 | 0.00 | 97 | 1009.8 | |
| 20260510052516 | 50 | 0.0 | 1.0 | 0.00 | 0.40 | 0.00 | 97 | 1009.4 | |
| 20260510051536 | 49 | 0.0 | 0.0 | 0.00 | 0.40 | 0.00 | 97 | 1009.5 | |
| 20260510050515 | 50 | 0.0 | 0.0 | 0.00 | 0.40 | 0.00 | 97 | 1009.5 | |
| 20260510045536 | 50 | 0.0 | 0.0 | 0.00 | 0.40 | 0.00 | 97 | 1009.5 | |
| 20260510044516 | 50 | 0.0 | 1.0 | 0.00 | 0.40 | 0.00 | 97 | 1009.6 | |
| 20260510043517 | 50 | 0.0 | 0.0 | 0.00 | 0.40 | 0.00 | 97 | 1009.8 | |
| 20260510042516 | 50 | 0.0 | 0.0 | 0.00 | 0.40 | 0.00 | 97 | 1010.1 | |
| 20260510041515 | 50 | 0.0 | 0.0 | 0.00 | 0.40 | 0.00 | 97 | 1009.8 | |
| 20260510040515 | 50 | 0.0 | 1.0 | 0.00 | 0.40 | 0.00 | 97 | 1009.9 | |
| 20260510035537 | 50 | 0.0 | 0.0 | 0.00 | 0.40 | 0.40 | 97 | 1009.8 | |
| 20260510034517 | 50 | 0.0 | 0.0 | 0.00 | 0.40 | 0.40 | 97 | 1009.8 | |
| 20260510033516 | 50 | 0.0 | 0.0 | 0.00 | 0.40 | 0.40 | 97 | 1009.7 | |
| 20260510032517 | 50 | 0.0 | 0.0 | 0.00 | 0.40 | 0.40 | 97 | 1009.7 | |
| 20260510031516 | 50 | 0.0 | 0.0 | 0.00 | 0.40 | 0.40 | 97 | 1009.6 | |
| 20260510030515 | 50 | 0.0 | 0.0 | 0.00 | 0.40 | 0.40 | 97 | 1009.7 | |
| 20260510025516 | 50 | 0.0 | 0.0 | 0.00 | 0.40 | 0.40 | 96 | 1009.6 | |
| 20260510024517 | 50 | 0.0 | 0.0 | 0.00 | 0.40 | 0.40 | 97 | 1009.6 | |
| 20260510023516 | 50 | 0.0 | 0.0 | 0.00 | 0.40 | 0.40 | 97 | 1009.5 | |
| 20260510022516 | 50 | 0.0 | 0.0 | 0.00 | 0.40 | 0.40 | 97 | 1009.7 | |
| 20260510021516 | 50 | 0.0 | 0.0 | 0.00 | 0.40 | 0.40 | 97 | 1010.0 | |
| 20260510020516 | 50 | 0.0 | 0.0 | 0.00 | 0.40 | 0.40 | 96 | 1010.2 | |
| 20260510015515 | 50 | 0.0 | 0.0 | 0.00 | 0.40 | 0.40 | 96 | 1010.2 | |
| 20260510014515 | 50 | 0.0 | 0.0 | 0.00 | 0.40 | 0.40 | 96 | 1010.3 | |
| 20260510013515 | 50 | 0.0 | 0.0 | 0.00 | 0.40 | 0.40 | 96 | 1010.2 | |
| 20260510012516 | 50 | 0.0 | 0.0 | 0.00 | 0.40 | 0.40 | 96 | 1010.1 | |
| 20260510011516 | 49 | 0.0 | 0.0 | 0.00 | 0.40 | 0.40 | 96 | 1009.9 | |
| 20260510010516 | 50 | 0.0 | 0.0 | 0.00 | 0.40 | 0.40 | 96 | 1009.7 | |
| 20260510005516 | 50 | 0.0 | 1.0 | 0.00 | 0.40 | 0.40 | 96 | 1009.6 | |
| 20260510004515 | 50 | 0.0 | 0.0 | 0.01 | 0.40 | 0.40 | 96 | 1009.6 | |
| 20260510003536 | 50 | 0.0 | 1.0 | 0.01 | 0.40 | 0.40 | 96 | 1009.6 | |
| 20260510002515 | 50 | 0.0 | 0.0 | 0.01 | 0.40 | 0.40 | 96 | 1009.6 | |
| 20260510001516 | 50 | 0.0 | 0.0 | 0.01 | 0.40 | 0.40 | 96 | 1009.5 | |
| 20260510000516 | 50 | 0.0 | 0.0 | 0.01 | 0.40 | 0.40 | 96 | 1009.4 | |
| 20260509235516 | 50 | 0.0 | 1.0 | 0.01 | 0.40 | 0.40 | 96 | 1009.5 | |
| 20260509234535 | 50 | 0.0 | 1.0 | 0.00 | 0.39 | 0.39 | 96 | 1009.5 | |
| 20260509233515 | 50 | 0.0 | 0.0 | 0.00 | 0.39 | 0.39 | 96 | 1009.5 | |
| 20260509232515 | 50 | 0.0 | 0.0 | 0.00 | 0.39 | 0.39 | 96 | 1009.4 | |
| 20260509231537 | 50 | 0.0 | 0.0 | 0.00 | 0.39 | 0.39 | 96 | 1009.4 |